createdAt,value
2018-01-29T00:01:26.574Z,7.20
2018-01-29T00:03:54.706Z,7.20
2018-01-29T00:06:22.771Z,7.20
2018-01-29T00:08:50.793Z,7.10
2018-01-29T00:11:18.937Z,7.10
2018-01-29T00:13:47.705Z,7.00
2018-01-29T00:16:15.738Z,7.00
2018-01-29T00:18:43.769Z,7.00
2018-01-29T00:21:12.593Z,6.90
2018-01-29T00:23:40.626Z,6.90
2018-01-29T00:26:09.398Z,6.90
2018-01-29T00:28:37.402Z,6.80
2018-01-29T00:31:05.461Z,6.80
2018-01-29T00:33:34.269Z,6.90
2018-01-29T00:36:02.266Z,6.80
2018-01-29T00:38:30.283Z,6.90
2018-01-29T00:40:59.070Z,6.90
2018-01-29T00:43:27.858Z,6.80
2018-01-29T00:45:56.689Z,6.80
2018-01-29T00:48:24.842Z,6.80
2018-01-29T00:50:52.953Z,6.80
2018-01-29T00:53:20.935Z,6.80
2018-01-29T00:55:49.034Z,6.80
2018-01-29T00:58:17.829Z,6.80
2018-01-29T01:00:46.602Z,6.80
2018-01-29T01:03:15.401Z,6.70
2018-01-29T01:05:44.198Z,6.70
2018-01-29T01:08:12.952Z,6.70
2018-01-29T01:10:40.985Z,6.70
2018-01-29T01:13:08.977Z,6.70
2018-01-29T01:15:36.986Z,6.70
2018-01-29T01:18:05.767Z,6.70
2018-01-29T01:20:34.582Z,6.70
2018-01-29T01:23:02.582Z,6.70
2018-01-29T01:25:30.649Z,6.70
2018-01-29T01:27:58.658Z,6.70
2018-01-29T01:30:26.666Z,6.70
2018-01-29T01:32:54.662Z,6.60
2018-01-29T01:35:22.678Z,6.60
2018-01-29T01:37:51.498Z,6.60
2018-01-29T01:40:19.506Z,6.60
2018-01-29T01:42:47.518Z,6.50
2018-01-29T01:45:16.301Z,6.50
2018-01-29T01:47:45.070Z,6.50
2018-01-29T01:50:13.109Z,6.50
2018-01-29T01:52:41.141Z,6.50
2018-01-29T01:55:09.234Z,6.50
2018-01-29T01:57:37.262Z,6.50
2018-01-29T02:00:06.054Z,6.50
2018-01-29T02:02:34.819Z,6.50
2018-01-29T02:05:02.858Z,6.40
2018-01-29T02:07:30.881Z,6.50
2018-01-29T02:09:59.699Z,6.40
2018-01-29T02:12:27.738Z,6.40
2018-01-29T02:14:56.514Z,6.40
2018-01-29T02:17:24.514Z,6.40
2018-01-29T02:19:52.579Z,6.40
2018-01-29T02:22:21.389Z,6.40
2018-01-29T02:24:49.379Z,6.30
2018-01-29T02:27:17.398Z,6.30
2018-01-29T02:29:46.164Z,6.30
2018-01-29T02:32:14.199Z,6.30
2018-01-29T02:34:42.210Z,6.30
2018-01-29T02:37:10.330Z,6.20
2018-01-29T02:39:38.335Z,6.20
2018-01-29T02:42:06.369Z,6.20
2018-01-29T02:44:34.412Z,6.20
2018-01-29T02:47:03.279Z,6.20
2018-01-29T02:49:31.355Z,6.20
2018-01-29T02:52:00.222Z,6.20
2018-01-29T02:54:28.333Z,6.20
2018-01-29T02:56:57.253Z,6.30
2018-01-29T02:59:25.323Z,6.20
2018-01-29T03:01:53.353Z,6.30
2018-01-29T03:04:21.435Z,6.30
2018-01-29T03:06:50.241Z,6.30
2018-01-29T03:09:18.265Z,6.30
2018-01-29T03:11:46.286Z,6.30
2018-01-29T03:14:14.298Z,6.30
2018-01-29T03:16:42.333Z,6.30
2018-01-29T03:19:10.335Z,6.30
2018-01-29T03:21:38.365Z,6.30
2018-01-29T03:24:06.415Z,6.30
2018-01-29T03:26:35.191Z,6.30
2018-01-29T03:29:03.205Z,6.30
2018-01-29T03:31:31.231Z,6.30
2018-01-29T03:33:59.284Z,6.30
2018-01-29T03:36:27.303Z,6.20
2018-01-29T03:38:55.297Z,6.20
2018-01-29T03:41:23.325Z,6.20
2018-01-29T03:43:52.125Z,6.10
2018-01-29T03:46:20.134Z,6.10
2018-01-29T03:48:48.143Z,6.10
2018-01-29T03:51:16.911Z,6.00
2018-01-29T03:53:44.907Z,6.00
2018-01-29T03:56:13.651Z,6.00
2018-01-29T03:58:41.658Z,5.90
2018-01-29T04:01:10.470Z,5.90
2018-01-29T04:03:38.478Z,5.90
2018-01-29T04:06:06.492Z,5.90
2018-01-29T04:08:35.270Z,5.90
2018-01-29T04:11:03.299Z,5.90
2018-01-29T04:13:31.311Z,5.80
2018-01-29T04:15:59.330Z,5.80
2018-01-29T04:18:27.381Z,5.70
2018-01-29T04:20:55.419Z,5.60
2018-01-29T04:23:23.445Z,5.60
2018-01-29T04:25:51.470Z,5.50
2018-01-29T04:28:20.269Z,5.50
2018-01-29T04:30:49.049Z,5.40
2018-01-29T04:33:17.827Z,5.40
2018-01-29T04:35:45.829Z,5.40
2018-01-29T04:38:13.839Z,5.40
2018-01-29T04:40:41.845Z,5.30
2018-01-29T04:43:10.615Z,5.30
2018-01-29T04:45:42.141Z,5.30
2018-01-29T04:48:10.173Z,5.30
2018-01-29T04:50:38.174Z,5.20
2018-01-29T04:53:06.251Z,5.20
2018-01-29T04:55:34.269Z,5.20
2018-01-29T04:58:03.031Z,5.10
2018-01-29T05:00:31.051Z,5.10
2018-01-29T05:02:59.069Z,5.10
2018-01-29T05:05:27.094Z,5.10
2018-01-29T05:07:55.137Z,5.00
2018-01-29T05:10:23.968Z,5.00
2018-01-29T05:12:51.993Z,5.00
2018-01-29T05:15:20.778Z,5.00
2018-01-29T05:17:49.554Z,5.00
2018-01-29T05:20:17.666Z,5.00
2018-01-29T05:22:45.719Z,5.00
2018-01-29T05:25:14.525Z,5.00
2018-01-29T05:27:42.517Z,4.90
2018-01-29T05:30:10.601Z,4.90
2018-01-29T05:32:38.645Z,4.90
2018-01-29T05:35:11.215Z,4.90
2018-01-29T05:37:44.736Z,4.90
2018-01-29T05:40:12.793Z,4.80
2018-01-29T05:42:40.930Z,4.80
2018-01-29T05:45:09.697Z,4.70
2018-01-29T05:47:37.725Z,4.70
2018-01-29T05:50:05.806Z,4.70
2018-01-29T05:52:33.901Z,4.70
2018-01-29T05:55:01.955Z,4.60
2018-01-29T05:57:30.054Z,4.50
2018-01-29T05:59:58.106Z,4.40
2018-01-29T06:02:26.197Z,4.30
2018-01-29T06:04:54.332Z,4.20
2018-01-29T06:07:22.369Z,4.20
2018-01-29T06:09:51.160Z,4.10
2018-01-29T06:12:19.286Z,4.10
2018-01-29T06:14:47.308Z,4.10
2018-01-29T06:17:15.325Z,4.10
2018-01-29T06:19:43.357Z,4.00
2018-01-29T06:22:11.385Z,4.00
2018-01-29T06:24:39.425Z,3.90
2018-01-29T06:27:07.503Z,3.90
2018-01-29T06:29:35.541Z,3.90
2018-01-29T06:32:03.631Z,3.80
2018-01-29T06:34:31.638Z,3.80
2018-01-29T06:36:59.691Z,3.80
2018-01-29T06:39:27.689Z,3.70
2018-01-29T06:41:56.549Z,3.70
2018-01-29T06:44:24.593Z,3.70
2018-01-29T06:46:52.634Z,3.60
2018-01-29T06:49:21.437Z,3.60
2018-01-29T06:51:49.442Z,3.50
2018-01-29T06:54:17.481Z,3.50
2018-01-29T06:56:45.503Z,3.50
2018-01-29T06:59:13.516Z,3.60
2018-01-29T07:01:41.529Z,3.60
2018-01-29T07:04:09.589Z,3.60
2018-01-29T07:06:37.687Z,3.60
2018-01-29T07:09:05.794Z,3.50
2018-01-29T07:11:33.820Z,3.50
2018-01-29T07:14:01.830Z,3.50
2018-01-29T07:16:29.862Z,3.60
2018-01-29T07:18:57.885Z,3.60
2018-01-29T07:21:25.911Z,3.60
2018-01-29T07:23:53.966Z,3.60
2018-01-29T07:26:21.990Z,3.70
2018-01-29T07:28:50.026Z,3.70
2018-01-29T07:31:18.076Z,3.70
2018-01-29T07:33:46.089Z,3.80
2018-01-29T07:36:14.884Z,3.80
2018-01-29T07:38:42.900Z,3.80
2018-01-29T07:41:10.924Z,3.80
2018-01-29T07:43:38.984Z,3.90
2018-01-29T07:46:07.799Z,3.90
2018-01-29T07:48:35.942Z,3.90
2018-01-29T07:51:04.770Z,4.00
2018-01-29T07:53:32.859Z,4.00
2018-01-29T07:56:00.900Z,4.10
2018-01-29T07:58:28.987Z,4.20
2018-01-29T08:00:57.078Z,4.30
2018-01-29T08:03:25.117Z,4.40
2018-01-29T08:05:53.179Z,4.50
2018-01-29T08:08:21.235Z,4.60
2018-01-29T08:10:49.308Z,4.70
2018-01-29T08:13:17.383Z,4.80
2018-01-29T08:15:45.435Z,5.00
2018-01-29T08:18:14.270Z,5.20
2018-01-29T08:20:42.312Z,5.20
2018-01-29T08:23:10.443Z,5.40
2018-01-29T08:25:38.515Z,5.50
2018-01-29T08:28:06.560Z,5.60
2018-01-29T08:30:34.604Z,5.70
2018-01-29T08:33:02.663Z,5.80
2018-01-29T08:35:30.704Z,5.90
2018-01-29T08:37:58.780Z,6.10
2018-01-29T08:40:26.875Z,6.20
2018-01-29T08:42:54.977Z,6.30
2018-01-29T08:45:23.162Z,6.50
2018-01-29T08:47:51.203Z,6.60
2018-01-29T08:50:19.297Z,6.60
2018-01-29T08:52:47.366Z,6.70
2018-01-29T08:55:15.405Z,6.80
2018-01-29T08:57:43.450Z,6.80
2018-01-29T09:00:12.342Z,6.90
2018-01-29T09:02:40.376Z,7.00
2018-01-29T09:05:08.432Z,7.10
2018-01-29T09:07:36.498Z,7.20
2018-01-29T09:10:04.559Z,7.30
2018-01-29T09:12:32.630Z,7.40
2018-01-29T09:15:00.685Z,7.40
2018-01-29T09:17:29.554Z,7.40
2018-01-29T09:19:58.396Z,7.40
2018-01-29T09:22:26.464Z,7.40
2018-01-29T09:24:54.504Z,7.40
2018-01-29T09:27:23.446Z,7.40
2018-01-29T09:29:52.231Z,7.40
2018-01-29T09:32:20.300Z,7.30
2018-01-29T09:34:48.387Z,7.40
2018-01-29T09:37:16.474Z,7.40
2018-01-29T09:39:44.547Z,7.50
2018-01-29T09:42:12.682Z,7.50
2018-01-29T09:44:40.714Z,7.60
2018-01-29T09:47:09.525Z,7.80
2018-01-29T09:49:37.695Z,7.80
2018-01-29T09:52:05.730Z,7.90
2018-01-29T09:54:34.558Z,8.10
2018-01-29T09:57:02.710Z,8.10
2018-01-29T09:59:30.756Z,8.20
2018-01-29T10:01:58.806Z,8.40
2018-01-29T10:04:26.894Z,8.50
2018-01-29T10:06:54.953Z,8.80
2018-01-29T10:09:22.983Z,9.00
2018-01-29T10:11:51.017Z,9.20
2018-01-29T10:14:19.843Z,9.40
2018-01-29T10:16:47.863Z,9.40
2018-01-29T10:19:15.918Z,9.50
2018-01-29T10:21:43.950Z,9.70
2018-01-29T10:24:11.967Z,9.90
2018-01-29T10:26:39.992Z,10.00
2018-01-29T10:29:08.029Z,10.20
2018-01-29T10:31:36.775Z,10.40
2018-01-29T10:34:04.816Z,10.40
2018-01-29T10:36:32.832Z,10.50
2018-01-29T10:39:00.876Z,10.60
2018-01-29T10:41:28.933Z,10.70
2018-01-29T10:43:56.958Z,10.90
2018-01-29T10:46:24.962Z,11.20
2018-01-29T10:48:53.003Z,11.50
2018-01-29T10:51:21.025Z,11.60
2018-01-29T10:53:49.058Z,11.70
2018-01-29T10:56:17.900Z,12.10
2018-01-29T10:58:45.918Z,12.10
2018-01-29T11:01:20.194Z,12.40
2018-01-29T11:03:48.242Z,12.40
2018-01-29T11:06:16.245Z,12.50
2018-01-29T11:08:44.262Z,12.60
2018-01-29T11:11:12.310Z,12.70
2018-01-29T11:13:41.122Z,12.90
2018-01-29T11:16:09.154Z,12.90
2018-01-29T11:18:37.191Z,13.00
2018-01-29T11:21:05.195Z,13.00
2018-01-29T11:23:33.246Z,13.20
2018-01-29T11:26:01.251Z,13.40
2018-01-29T11:28:30.054Z,13.60
2018-01-29T11:30:58.079Z,13.50
2018-01-29T11:33:26.094Z,13.60
2018-01-29T11:35:54.151Z,13.70
2018-01-29T11:38:23.050Z,13.70
2018-01-29T11:40:51.814Z,13.80
2018-01-29T11:43:19.827Z,13.80
2018-01-29T11:45:47.913Z,13.80
2018-01-29T11:48:15.937Z,13.70
2018-01-29T11:50:44.713Z,13.60
2018-01-29T11:53:12.727Z,13.60
2018-01-29T11:55:40.731Z,13.60
2018-01-29T11:58:08.761Z,13.60
2018-01-29T12:00:36.809Z,13.70
2018-01-29T12:03:05.562Z,14.20
2018-01-29T12:05:33.598Z,14.20
2018-01-29T12:08:01.634Z,14.60
2018-01-29T12:10:30.446Z,15.40
2018-01-29T12:12:58.484Z,15.40
2018-01-29T12:15:26.517Z,16.20
2018-01-29T12:17:54.541Z,17.10
2018-01-29T12:20:23.316Z,18.70
2018-01-29T12:22:51.322Z,18.70
2018-01-29T12:25:19.344Z,19.40
2018-01-29T12:27:47.362Z,20.00
2018-01-29T12:30:15.370Z,20.60
2018-01-29T12:32:43.398Z,21.00
2018-01-29T12:35:11.400Z,21.50
2018-01-29T12:37:39.442Z,21.90
2018-01-29T12:40:07.454Z,22.30
2018-01-29T12:42:35.465Z,22.60
2018-01-29T12:45:04.262Z,23.10
2018-01-29T12:47:32.279Z,23.00
2018-01-29T12:50:00.291Z,23.20
2018-01-29T12:52:28.398Z,23.30
2018-01-29T12:54:56.423Z,23.40
2018-01-29T12:57:25.227Z,23.30
2018-01-29T12:59:53.991Z,23.20
2018-01-29T13:02:22.789Z,23.10
2018-01-29T13:04:51.569Z,22.90
2018-01-29T13:07:19.597Z,22.90
2018-01-29T13:09:47.633Z,22.60
2018-01-29T13:12:15.639Z,22.20
2018-01-29T13:14:43.651Z,22.10
2018-01-29T13:17:12.453Z,22.40
2018-01-29T13:19:41.242Z,22.60
2018-01-29T13:22:10.041Z,22.80
2018-01-29T13:24:38.077Z,22.80
2018-01-29T13:27:06.074Z,23.00
2018-01-29T13:29:34.874Z,23.20
2018-01-29T13:32:02.966Z,23.20
2018-01-29T13:34:30.982Z,23.30
2018-01-29T13:36:59.038Z,23.50
2018-01-29T13:39:27.083Z,23.70
2018-01-29T13:41:55.132Z,23.80
2018-01-29T13:44:23.210Z,23.80
2018-01-29T13:46:51.238Z,23.60
2018-01-29T13:49:20.018Z,22.90
2018-01-29T13:51:48.043Z,22.90
2018-01-29T13:54:16.070Z,22.40
2018-01-29T13:56:44.862Z,21.20
2018-01-29T13:59:13.687Z,20.70
2018-01-29T14:01:41.713Z,20.60
2018-01-29T14:04:10.529Z,19.60
2018-01-29T14:06:38.534Z,19.60
2018-01-29T14:09:06.689Z,19.20
2018-01-29T14:11:34.705Z,18.90
2018-01-29T14:14:02.756Z,18.70
2018-01-29T14:16:30.793Z,18.50
2018-01-29T14:18:58.811Z,18.40
2018-01-29T14:21:26.834Z,18.50
2018-01-29T14:23:54.862Z,18.50
2018-01-29T14:26:22.945Z,18.50
2018-01-29T14:28:51.710Z,18.40
2018-01-29T14:31:19.734Z,18.40
2018-01-29T14:33:47.762Z,18.30
2018-01-29T14:36:15.819Z,18.20
2018-01-29T14:38:43.852Z,18.20
2018-01-29T14:41:11.879Z,18.20
2018-01-29T14:43:40.656Z,18.00
2018-01-29T14:46:08.729Z,18.00
2018-01-29T14:48:36.747Z,18.00
2018-01-29T14:51:04.770Z,18.10
2018-01-29T14:53:32.795Z,18.10
2018-01-29T14:56:00.828Z,18.20
2018-01-29T14:58:29.595Z,18.20
2018-01-29T15:00:57.675Z,18.10
2018-01-29T15:03:26.506Z,18.20
2018-01-29T15:05:54.483Z,18.20
2018-01-29T15:08:22.529Z,18.20
2018-01-29T15:10:50.571Z,18.20
2018-01-29T15:13:18.595Z,18.20
2018-01-29T15:15:46.617Z,18.10
2018-01-29T15:18:15.430Z,17.90
2018-01-29T15:20:43.486Z,17.80
2018-01-29T15:23:12.310Z,17.20
2018-01-29T15:25:40.389Z,17.10
2018-01-29T15:28:08.395Z,16.70
2018-01-29T15:30:36.445Z,16.30
2018-01-29T15:33:04.510Z,15.90
2018-01-29T15:35:32.589Z,15.60
2018-01-29T15:38:00.623Z,15.30
2018-01-29T15:40:28.672Z,15.00
2018-01-29T15:42:57.454Z,14.50
2018-01-29T15:45:26.257Z,14.30
2018-01-29T15:47:54.287Z,14.20
2018-01-29T15:50:22.317Z,14.00
2018-01-29T15:52:50.398Z,13.80
2018-01-29T15:55:18.427Z,13.70
2018-01-29T15:57:47.267Z,13.30
2018-01-29T16:00:15.309Z,13.20
2018-01-29T16:02:43.401Z,13.10
2018-01-29T16:05:12.518Z,13.00
2018-01-29T16:07:40.581Z,12.80
2018-01-29T16:10:08.627Z,12.60
2018-01-29T16:12:36.675Z,12.50
2018-01-29T16:15:04.737Z,12.40
2018-01-29T16:17:33.540Z,12.10
2018-01-29T16:20:01.554Z,12.00
2018-01-29T16:22:29.667Z,11.90
2018-01-29T16:24:58.519Z,11.60
2018-01-29T16:27:26.567Z,11.60
2018-01-29T16:29:54.583Z,11.50
2018-01-29T16:32:23.386Z,11.20
2018-01-29T16:34:52.180Z,11.10
2018-01-29T16:37:20.205Z,11.10
2018-01-29T16:39:48.258Z,11.00
2018-01-29T16:42:16.282Z,10.90
2018-01-29T16:44:45.103Z,10.60
2018-01-29T16:47:13.134Z,10.60
2018-01-29T16:49:42.014Z,10.40
2018-01-29T16:52:10.050Z,10.40
2018-01-29T16:54:38.099Z,10.30
2018-01-29T16:57:06.136Z,10.20
2018-01-29T16:59:34.221Z,10.00
2018-01-29T17:02:02.286Z,9.90
2018-01-29T17:04:30.318Z,9.70
2018-01-29T17:06:58.339Z,9.60
2018-01-29T17:09:26.415Z,9.50
2018-01-29T17:11:54.445Z,9.40
2018-01-29T17:14:22.475Z,9.30
2018-01-29T17:16:50.529Z,9.20
2018-01-29T17:19:18.573Z,9.10
2018-01-29T17:21:47.378Z,9.00
2018-01-29T17:24:15.415Z,9.00
2018-01-29T17:26:43.456Z,9.00
2018-01-29T17:29:11.528Z,8.90
2018-01-29T17:31:39.683Z,8.80
2018-01-29T17:34:07.699Z,8.70
2018-01-29T17:36:35.710Z,8.70
2018-01-29T17:39:03.874Z,8.60
2018-01-29T17:41:31.930Z,8.60
2018-01-29T17:44:00.774Z,8.40
2018-01-29T17:46:28.811Z,8.40
2018-01-29T17:48:56.819Z,8.40
2018-01-29T17:51:25.613Z,8.20
2018-01-29T17:53:53.655Z,8.20
2018-01-29T17:56:21.667Z,8.20
2018-01-29T17:58:49.694Z,8.10
2018-01-29T18:01:17.782Z,8.10
2018-01-29T18:03:45.853Z,8.00
2018-01-29T18:06:13.852Z,7.90
2018-01-29T18:08:41.929Z,7.90
2018-01-29T18:11:09.970Z,7.80
2018-01-29T18:13:38.011Z,7.80
2018-01-29T18:16:06.189Z,7.70
2018-01-29T18:18:34.210Z,7.70
2018-01-29T18:21:02.218Z,7.60
2018-01-29T18:23:30.279Z,7.60
2018-01-29T18:25:58.294Z,7.50
2018-01-29T18:28:26.362Z,7.50
2018-01-29T18:30:54.395Z,7.50
2018-01-29T18:33:22.537Z,7.50
2018-01-29T18:35:50.650Z,7.50
2018-01-29T18:38:18.730Z,7.50
2018-01-29T18:40:46.761Z,7.50
2018-01-29T18:43:15.536Z,7.50
2018-01-29T18:45:43.799Z,7.50
2018-01-29T18:48:11.849Z,7.40
2018-01-29T18:50:39.890Z,7.50
2018-01-29T18:53:07.942Z,7.40
2018-01-29T18:55:36.769Z,7.40
2018-01-29T18:58:04.830Z,7.40
2018-01-29T19:00:32.861Z,7.40
2018-01-29T19:03:00.898Z,7.50
2018-01-29T19:05:28.918Z,7.40
2018-01-29T19:07:57.819Z,7.40
2018-01-29T19:10:25.878Z,7.40
2018-01-29T19:12:54.673Z,7.40
2018-01-29T19:15:23.463Z,7.40
2018-01-29T19:17:51.778Z,7.40
2018-01-29T19:20:19.884Z,7.40
2018-01-29T19:22:47.895Z,7.40
2018-01-29T19:25:15.942Z,7.50
2018-01-29T19:27:44.747Z,7.50
2018-01-29T19:30:12.775Z,7.50
2018-01-29T19:32:40.810Z,7.50
2018-01-29T19:35:08.846Z,7.50
2018-01-29T19:37:37.679Z,7.40
2018-01-29T19:40:05.689Z,7.40
2018-01-29T19:42:33.694Z,7.40
2018-01-29T19:45:01.721Z,7.30
2018-01-29T19:47:29.976Z,7.30
2018-01-29T19:49:58.142Z,7.30
2018-01-29T19:52:27.165Z,7.30
2018-01-29T19:54:55.333Z,7.30
2018-01-29T19:57:23.350Z,7.30
2018-01-29T19:59:51.359Z,7.30
2018-01-29T20:02:19.399Z,7.30
2018-01-29T20:04:47.532Z,7.30
2018-01-29T20:07:16.397Z,7.30
2018-01-29T20:12:18.707Z,7.30
2018-01-29T20:14:47.525Z,7.30
2018-01-29T20:17:15.642Z,7.30
2018-01-29T20:19:43.695Z,7.20
2018-01-29T20:22:11.736Z,7.20
2018-01-29T20:24:39.790Z,7.20
2018-01-29T20:27:08.630Z,7.20
2018-01-29T20:29:36.665Z,7.20
2018-01-29T20:32:04.710Z,7.20
2018-01-29T20:34:33.616Z,7.10
2018-01-29T20:37:02.406Z,7.10
2018-01-29T20:39:30.445Z,7.10
2018-01-29T20:42:00.719Z,7.10
2018-01-29T20:44:34.747Z,7.10
2018-01-29T20:47:02.825Z,7.10
2018-01-29T20:49:31.653Z,7.10
2018-01-29T20:52:00.466Z,7.10
2018-01-29T20:54:28.510Z,7.10
2018-01-29T20:56:57.351Z,7.00
2018-01-29T20:59:25.394Z,7.00
2018-01-29T21:01:53.446Z,7.00
2018-01-29T21:04:22.258Z,7.00
2018-01-29T21:06:50.290Z,7.00
2018-01-29T21:09:18.318Z,7.00
2018-01-29T21:11:46.335Z,7.00
2018-01-29T21:14:14.398Z,7.00
2018-01-29T21:16:42.439Z,7.00
2018-01-29T21:19:10.485Z,7.00
2018-01-29T21:21:38.529Z,7.00
2018-01-29T21:24:07.305Z,7.00
2018-01-29T21:26:35.360Z,7.00
2018-01-29T21:29:03.730Z,7.00
2018-01-29T21:31:31.759Z,7.00
2018-01-29T21:33:59.833Z,6.90
2018-01-29T21:36:27.878Z,6.80
2018-01-29T21:38:56.693Z,6.70
2018-01-29T21:41:24.782Z,6.70
2018-01-29T21:43:52.801Z,6.70
2018-01-29T21:46:21.567Z,6.70
2018-01-29T21:48:49.571Z,6.70
2018-01-29T21:51:18.403Z,6.80
2018-01-29T21:53:46.433Z,6.70
2018-01-29T21:56:15.222Z,6.70
2018-01-29T21:58:44.019Z,6.70
2018-01-29T22:01:12.143Z,6.70
2018-01-29T22:03:40.149Z,6.70
2018-01-29T22:06:09.001Z,6.60
2018-01-29T22:08:37.007Z,6.60
2018-01-29T22:11:05.769Z,6.60
2018-01-29T22:13:33.778Z,6.60
2018-01-29T22:16:01.787Z,6.60
2018-01-29T22:18:29.889Z,6.60
2018-01-29T22:20:57.891Z,6.60
2018-01-29T22:23:26.007Z,6.60
2018-01-29T22:25:54.080Z,6.60
2018-01-29T22:28:22.099Z,6.60
2018-01-29T22:30:50.211Z,6.60
2018-01-29T22:33:18.580Z,6.50
2018-01-29T22:35:46.586Z,6.50
2018-01-29T22:38:14.638Z,6.50
2018-01-29T22:40:42.637Z,6.50
2018-01-29T22:43:11.410Z,6.40
2018-01-29T22:45:40.231Z,6.40
2018-01-29T22:48:08.238Z,6.40
2018-01-29T22:50:36.247Z,6.30
2018-01-29T22:53:04.280Z,6.30
2018-01-29T22:55:32.317Z,6.30
2018-01-29T22:58:00.342Z,6.20
2018-01-29T23:00:28.395Z,6.20
2018-01-29T23:02:56.420Z,6.10
2018-01-29T23:05:24.436Z,6.10
2018-01-29T23:07:52.477Z,6.10
2018-01-29T23:10:20.507Z,6.10
2018-01-29T23:12:48.553Z,6.00
2018-01-29T23:15:16.590Z,6.00
2018-01-29T23:17:44.609Z,6.00
2018-01-29T23:20:12.622Z,6.00
2018-01-29T23:22:40.654Z,6.00
2018-01-29T23:25:08.690Z,6.00
2018-01-29T23:27:36.702Z,6.00
2018-01-29T23:30:05.491Z,5.90
2018-01-29T23:32:34.333Z,5.90
2018-01-29T23:35:02.362Z,5.90
2018-01-29T23:37:31.197Z,5.90
2018-01-29T23:39:59.222Z,5.90
2018-01-29T23:42:28.021Z,5.90
2018-01-29T23:44:56.070Z,5.80
2018-01-29T23:47:24.850Z,5.80
2018-01-29T23:49:53.635Z,5.80
2018-01-29T23:52:21.679Z,5.80
2018-01-29T23:54:49.703Z,5.80
2018-01-29T23:57:17.747Z,5.80
2018-01-29T23:59:45.779Z,5.80
